KLRO/LRO METAR and TAF weather

Enter ICAO airport designator
Station Type Date Time Source
KLRO METAR 2021/05/11 01:15 UTC NOAA

KLRO 110115Z AUTO 00000KT 9SM CLR 23/22 A2999 RMK AO2


Station Type Date Time Source
KLRO Decoded METAR 2021/05/11 01:15 UTC NOAA

Station name not available
May 10, 2021 - 09:15 PM EDT / 2021.05.11 0115 UTC
Wind: Calm:0
Visibility: 9 mile(s):0
Sky conditions: clear
Temperature: 73 F (23 C)
Dew Point: 71 F (22 C)
Relative Humidity: 94%
Pressure (altimeter): 29.99 in. Hg (1015 hPa)
ob: KLRO 110115Z AUTO 00000KT 9SM CLR 23/22 A2999 RMK AO2
cycle: 1

Station Type Date Time Source
KLRO TAF UTC NOAA

Error!

Example: see airport list